Aérodrome :
LOGIN :

S'inscrire | Disclaimer

   EN    FR    IT 

 










Légende :    VFR   VFR Marginal   IFR   IFR Intensif   IFR Très Intensif
Visi : 
Plafond : 
>= 8 km
>= 3000ft
5 à 8 km
1000 à 3000 ft
1500m à 5 km
500 à 1000 ft
800 à 1500m
200 à 500 ft
< 800m
< 200 ft
Symboles :   Orages  Brouillard  Fortes neiges  Fortes précipitations  Vent > 20 kt
SIGMETs :   Divers  Orages  Givrage  Turbulence  Onde Orograph.  Cendres Volcan.







- Altitude de l'aérodrome : 529 ft
- Code IATA : CHR
- Voir les cartes d'approche


LFLX - Chateauroux

DERNIER METAR :
  • 221830Z AUTO 24013KT 9999 OVC035 21/08 Q1020 BECMG 22015G25KT

METARs EXPIRÉS :
  • 221800Z AUTO 23011KT 9999 BKN038 OVC052 21/08 Q1020 BECMG 22015G25KT
  • 221730Z AUTO 24011KT 9999 OVC040 21/07 Q1020 BECMG 22015G25KT
  • 221700Z AUTO 24013KT 9999 OVC041 21/05 Q1020 BECMG 22015G25KT
  • 221600Z AUTO 25012KT 9999 OVC046 22/05 Q1020 NOSIG

TAF TAF LFLX
Valide du 22 à 18h jusqu'au 24 à 00h UTC


221700Z 2218/2324 22012KT 9999 BKN040
BECMG 2218/2221 22015G25KT
BECMG 2301/2303 BKN012
TEMPO 2303/2316 4000 -DZ BKN006
TEMPO 2316/2318 22020G35KT 3000 -RA BKN003 SCT020CB
BECMG 2317/2320 32015G27KT SCT025
BECMG 2321/2324 34006KT
Pas de NOTAMs connus pour ce terrain.



MET'MAP, la Météo Aéronautique d'un coup d'oeil ! - Copyright ORBIFLY Décembre 2007 - Disclaimer

ORBIFLY MET'MAP TEAM :

Programmation & Développement : Alexandra Zaïnal
Conception & Développement : Baudouin d'Aumeries
Co-Programmation & Développement : Marc-Olivier Méhu
Soutien technique & logistique : Manuel Goepfert

Contact : metmap@orbifly.com




SOURCES & CREDITS :

   NOAA